KIJX/IJX METAR and TAF weather

Enter ICAO airport designator
Station Type Date Time Source
KIJX METAR 2019/05/23 18:55 UTC NOAA

KIJX 231855Z AUTO 17004KT 10SM BKN031 23/14 A3010 RMK AO2 T02250142


Station Type Date Time Source
KIJX Decoded METAR 2019/05/23 18:55 UTC NOAA

Jacksonville, Jacksonville Municipal Airport, IL, United States (KIJX) 39-46-27N 090-14-19W
May 23, 2019 - 02:55 PM EDT / 2019.05.23 1855 UTC
Wind: from the S (170 degrees) at 5 MPH (4 KT):0
Visibility: 10 mile(s):0
Sky conditions: mostly cloudy
Temperature: 72.5 F (22.5 C)
Dew Point: 57.6 F (14.2 C)
Relative Humidity: 59%
Pressure (altimeter): 30.1 in. Hg (1019 hPa)
ob: KIJX 231855Z AUTO 17004KT 10SM BKN031 23/14 A3010 RMK AO2 T02250142
cycle: 19

Station Type Date Time Source
KIJX TAF UTC NOAA

Error!

Example: see airport list